sensor_id;sensor_type;location;lat;lon;timestamp;temperature;humidity
4431;DHT22;2228;48.140;11.488;2023-03-23T03:13:45;8.80;1.00
4431;DHT22;2228;48.140;11.488;2023-03-23T03:16:24;8.80;1.00
4431;DHT22;2228;48.140;11.488;2023-03-23T03:19:02;8.70;1.00
4431;DHT22;2228;48.140;11.488;2023-03-23T03:21:34;8.80;1.00
4431;DHT22;2228;48.140;11.488;2023-03-23T03:29:33;8.90;1.00
4431;DHT22;2228;48.140;11.488;2023-03-23T03:34:45;8.90;1.00
4431;DHT22;2228;48.140;11.488;2023-03-23T03:37:17;9.00;1.00
4431;DHT22;2228;48.140;11.488;2023-03-23T03:39:48;9.00;1.00
4431;DHT22;2228;48.140;11.488;2023-03-23T03:42:18;9.00;1.00
4431;DHT22;2228;48.140;11.488;2023-03-23T03:44:48;9.00;1.00
4431;DHT22;2228;48.140;11.488;2023-03-23T03:47:15;9.00;1.00
4431;DHT22;2228;48.140;11.488;2023-03-23T03:49:42;8.90;1.00
4431;DHT22;2228;48.140;11.488;2023-03-23T03:52:09;9.00;1.00
4431;DHT22;2228;48.140;11.488;2023-03-23T03:54:36;9.10;1.00
4431;DHT22;2228;48.140;11.488;2023-03-23T03:57:03;9.20;1.00
4431;DHT22;2228;48.140;11.488;2023-03-23T03:59:30;9.20;1.00
4431;DHT22;2228;48.140;11.488;2023-03-23T04:01:59;9.20;1.00
4431;DHT22;2228;48.140;11.488;2023-03-23T04:04:27;9.20;1.00
4431;DHT22;2228;48.140;11.488;2023-03-23T04:06:54;9.20;1.00
4431;DHT22;2228;48.140;11.488;2023-03-23T04:09:21;9.20;1.00
4431;DHT22;2228;48.140;11.488;2023-03-23T04:11:48;9.40;1.00
4431;DHT22;2228;48.140;11.488;2023-03-23T04:14:15;9.60;1.00
4431;DHT22;2228;48.140;11.488;2023-03-23T04:16:42;9.70;1.00
4431;DHT22;2228;48.140;11.488;2023-03-23T04:19:10;9.60;1.00
4431;DHT22;2228;48.140;11.488;2023-03-23T04:21:37;9.60;1.00
4431;DHT22;2228;48.140;11.488;2023-03-23T04:24:05;9.60;1.00
4431;DHT22;2228;48.140;11.488;2023-03-23T04:26:33;9.60;1.00
4431;DHT22;2228;48.140;11.488;2023-03-23T04:29:00;9.60;1.00
4431;DHT22;2228;48.140;11.488;2023-03-23T04:31:28;9.50;1.00
4431;DHT22;2228;48.140;11.488;2023-03-23T04:33:55;9.40;1.00
4431;DHT22;2228;48.140;11.488;2023-03-23T04:36:24;9.40;1.00
4431;DHT22;2228;48.140;11.488;2023-03-23T04:38:51;9.50;1.00
4431;DHT22;2228;48.140;11.488;2023-03-23T04:41:20;9.60;1.00
4431;DHT22;2228;48.140;11.488;2023-03-23T04:43:47;9.60;1.00
4431;DHT22;2228;48.140;11.488;2023-03-23T04:46:18;9.60;1.00
4431;DHT22;2228;48.140;11.488;2023-03-23T04:48:47;9.60;1.00
4431;DHT22;2228;48.140;11.488;2023-03-23T04:51:14;9.60;1.00
4431;DHT22;2228;48.140;11.488;2023-03-23T04:53:42;9.80;1.00
4431;DHT22;2228;48.140;11.488;2023-03-23T04:56:09;9.90;1.00
4431;DHT22;2228;48.140;11.488;2023-03-23T04:58:39;10.00;1.00
4431;DHT22;2228;48.140;11.488;2023-03-23T05:01:06;9.80;1.00
4431;DHT22;2228;48.140;11.488;2023-03-23T05:03:33;9.80;1.00
4431;DHT22;2228;48.140;11.488;2023-03-23T05:06:01;9.70;1.00
4431;DHT22;2228;48.140;11.488;2023-03-23T05:08:28;9.70;1.00
4431;DHT22;2228;48.140;11.488;2023-03-23T05:10:59;9.60;1.00
4431;DHT22;2228;48.140;11.488;2023-03-23T05:13:27;9.60;1.00
4431;DHT22;2228;48.140;11.488;2023-03-23T05:15:55;9.80;1.00
4431;DHT22;2228;48.140;11.488;2023-03-23T05:18:22;9.80;1.00
4431;DHT22;2228;48.140;11.488;2023-03-23T05:20:49;9.90;1.00
4431;DHT22;2228;48.140;11.488;2023-03-23T05:23:18;10.10;1.00
4431;DHT22;2228;48.140;11.488;2023-03-23T05:25:53;10.10;1.00
4431;DHT22;2228;48.140;11.488;2023-03-23T05:28:22;10.10;1.00
4431;DHT22;2228;48.140;11.488;2023-03-23T05:30:49;10.10;1.00
4431;DHT22;2228;48.140;11.488;2023-03-23T05:33:17;10.40;1.00
4431;DHT22;2228;48.140;11.488;2023-03-23T05:35:45;10.30;1.00
4431;DHT22;2228;48.140;11.488;2023-03-23T05:38:14;10.40;1.00
4431;DHT22;2228;48.140;11.488;2023-03-23T05:40:42;10.30;1.00
4431;DHT22;2228;48.140;11.488;2023-03-23T05:43:09;10.20;1.00
4431;DHT22;2228;48.140;11.488;2023-03-23T05:45:38;10.30;1.00
4431;DHT22;2228;48.140;11.488;2023-03-23T05:48:05;10.40;1.00
4431;DHT22;2228;48.140;11.488;2023-03-23T05:50:33;10.50;1.00
4431;DHT22;2228;48.140;11.488;2023-03-23T05:53:02;10.70;1.00
4431;DHT22;2228;48.140;11.488;2023-03-23T05:55:31;10.80;1.00
4431;DHT22;2228;48.140;11.488;2023-03-23T05:57:59;10.80;1.00
4431;DHT22;2228;48.140;11.488;2023-03-23T06:00:27;10.90;1.00
4431;DHT22;2228;48.140;11.488;2023-03-23T06:03:04;10.80;1.00
4431;DHT22;2228;48.140;11.488;2023-03-23T06:05:31;10.80;1.00
4431;DHT22;2228;48.140;11.488;2023-03-23T06:08:00;10.80;1.00
4431;DHT22;2228;48.140;11.488;2023-03-23T06:10:30;10.70;1.00
4431;DHT22;2228;48.140;11.488;2023-03-23T06:13:14;10.70;1.00
4431;DHT22;2228;48.140;11.488;2023-03-23T06:15:45;10.80;1.00
4431;DHT22;2228;48.140;11.488;2023-03-23T06:18:16;10.90;1.00
4431;DHT22;2228;48.140;11.488;2023-03-23T06:20:46;11.00;1.00
4431;DHT22;2228;48.140;11.488;2023-03-23T06:23:19;11.00;1.00
4431;DHT22;2228;48.140;11.488;2023-03-23T06:25:52;11.00;1.00
4431;DHT22;2228;48.140;11.488;2023-03-23T06:28:22;11.10;1.00
4431;DHT22;2228;48.140;11.488;2023-03-23T06:30:52;11.00;1.00
4431;DHT22;2228;48.140;11.488;2023-03-23T06:33:23;11.10;1.00
4431;DHT22;2228;48.140;11.488;2023-03-23T06:35:52;11.20;1.00
4431;DHT22;2228;48.140;11.488;2023-03-23T06:38:30;11.40;1.00
4431;DHT22;2228;48.140;11.488;2023-03-23T06:41:06;11.60;1.00
4431;DHT22;2228;48.140;11.488;2023-03-23T06:43:47;11.70;1.00
4431;DHT22;2228;48.140;11.488;2023-03-23T06:46:17;11.80;1.00
4431;DHT22;2228;48.140;11.488;2023-03-23T06:48:49;11.80;1.00
4431;DHT22;2228;48.140;11.488;2023-03-23T06:51:18;11.80;1.00
4431;DHT22;2228;48.140;11.488;2023-03-23T06:53:46;11.80;1.00
4431;DHT22;2228;48.140;11.488;2023-03-23T06:56:14;12.00;1.00
4431;DHT22;2228;48.140;11.488;2023-03-23T06:58:43;12.20;1.00
4431;DHT22;2228;48.140;11.488;2023-03-23T07:01:12;12.40;1.00
4431;DHT22;2228;48.140;11.488;2023-03-23T07:03:41;12.70;1.00
4431;DHT22;2228;48.140;11.488;2023-03-23T07:06:14;12.90;1.00
4431;DHT22;2228;48.140;11.488;2023-03-23T07:08:42;13.10;1.00
4431;DHT22;2228;48.140;11.488;2023-03-23T07:11:10;13.40;1.00
4431;DHT22;2228;48.140;11.488;2023-03-23T07:13:37;13.70;1.00
4431;DHT22;2228;48.140;11.488;2023-03-23T07:16:07;13.60;1.00
4431;DHT22;2228;48.140;11.488;2023-03-23T07:18:37;13.50;1.00
4431;DHT22;2228;48.140;11.488;2023-03-23T07:21:06;13.50;1.00
4431;DHT22;2228;48.140;11.488;2023-03-23T07:23:35;13.60;1.00
4431;DHT22;2228;48.140;11.488;2023-03-23T07:26:04;13.70;1.00
4431;DHT22;2228;48.140;11.488;2023-03-23T07:28:32;13.90;1.00
4431;DHT22;2228;48.140;11.488;2023-03-23T07:31:02;14.00;1.00
4431;DHT22;2228;48.140;11.488;2023-03-23T07:33:30;14.30;1.00
4431;DHT22;2228;48.140;11.488;2023-03-23T07:35:58;14.50;1.00
4431;DHT22;2228;48.140;11.488;2023-03-23T07:38:28;14.80;1.00
4431;DHT22;2228;48.140;11.488;2023-03-23T07:40:57;14.80;1.00
4431;DHT22;2228;48.140;11.488;2023-03-23T07:43:27;15.00;1.00
4431;DHT22;2228;48.140;11.488;2023-03-23T07:45:54;15.30;1.00
4431;DHT22;2228;48.140;11.488;2023-03-23T07:48:23;15.50;1.00
4431;DHT22;2228;48.140;11.488;2023-03-23T07:50:50;15.70;1.00
4431;DHT22;2228;48.140;11.488;2023-03-23T07:53:19;16.00;1.00
4431;DHT22;2228;48.140;11.488;2023-03-23T07:55:50;16.10;1.00
4431;DHT22;2228;48.140;11.488;2023-03-23T07:58:21;16.00;1.00
4431;DHT22;2228;48.140;11.488;2023-03-23T08:00:48;15.90;1.00
4431;DHT22;2228;48.140;11.488;2023-03-23T08:03:16;16.10;1.00
4431;DHT22;2228;48.140;11.488;2023-03-23T08:05:45;16.00;1.00
4431;DHT22;2228;48.140;11.488;2023-03-23T08:08:13;16.10;1.00
4431;DHT22;2228;48.140;11.488;2023-03-23T08:10:42;15.90;1.00
4431;DHT22;2228;48.140;11.488;2023-03-23T08:13:10;15.70;1.00
4431;DHT22;2228;48.140;11.488;2023-03-23T08:15:56;15.90;1.00
4431;DHT22;2228;48.140;11.488;2023-03-23T08:18:24;15.90;1.00
4431;DHT22;2228;48.140;11.488;2023-03-23T08:20:53;15.80;1.00
4431;DHT22;2228;48.140;11.488;2023-03-23T08:23:20;15.70;1.00
4431;DHT22;2228;48.140;11.488;2023-03-23T08:25:47;15.90;1.00
4431;DHT22;2228;48.140;11.488;2023-03-23T08:28:15;16.00;1.00
4431;DHT22;2228;48.140;11.488;2023-03-23T08:30:42;16.00;1.00
4431;DHT22;2228;48.140;11.488;2023-03-23T08:33:10;15.90;1.00
4431;DHT22;2228;48.140;11.488;2023-03-23T08:35:40;16.20;1.00
4431;DHT22;2228;48.140;11.488;2023-03-23T08:38:08;16.40;1.00
4431;DHT22;2228;48.140;11.488;2023-03-23T08:40:35;16.90;1.00
4431;DHT22;2228;48.140;11.488;2023-03-23T08:43:03;17.20;1.00
4431;DHT22;2228;48.140;11.488;2023-03-23T08:45:30;17.60;1.00
4431;DHT22;2228;48.140;11.488;2023-03-23T08:47:57;17.70;1.00
4431;DHT22;2228;48.140;11.488;2023-03-23T08:50:27;17.70;1.00
4431;DHT22;2228;48.140;11.488;2023-03-23T08:52:56;18.10;1.00
4431;DHT22;2228;48.140;11.488;2023-03-23T08:55:24;18.30;1.00
4431;DHT22;2228;48.140;11.488;2023-03-23T08:57:52;18.50;99.90
4431;DHT22;2228;48.140;11.488;2023-03-23T09:00:21;18.60;99.90
4431;DHT22;2228;48.140;11.488;2023-03-23T09:02:51;18.50;99.90
4431;DHT22;2228;48.140;11.488;2023-03-23T09:05:20;18.60;99.90
4431;DHT22;2228;48.140;11.488;2023-03-23T09:07:54;18.80;99.90
4431;DHT22;2228;48.140;11.488;2023-03-23T09:10:22;19.10;99.90
4431;DHT22;2228;48.140;11.488;2023-03-23T09:12:51;19.40;99.90
4431;DHT22;2228;48.140;11.488;2023-03-23T09:15:19;19.60;99.90
4431;DHT22;2228;48.140;11.488;2023-03-23T09:17:47;19.70;99.90
4431;DHT22;2228;48.140;11.488;2023-03-23T09:20:18;19.70;99.90
4431;DHT22;2228;48.140;11.488;2023-03-23T09:22:52;19.40;99.90
4431;DHT22;2228;48.140;11.488;2023-03-23T09:25:21;19.20;99.90
4431;DHT22;2228;48.140;11.488;2023-03-23T09:27:51;18.90;99.90
4431;DHT22;2228;48.140;11.488;2023-03-23T09:30:23;19.10;99.90
4431;DHT22;2228;48.140;11.488;2023-03-23T09:32:50;18.90;99.90
4431;DHT22;2228;48.140;11.488;2023-03-23T09:35:17;18.90;99.90
4431;DHT22;2228;48.140;11.488;2023-03-23T09:37:48;18.80;99.90
4431;DHT22;2228;48.140;11.488;2023-03-23T09:40:19;18.70;99.90
4431;DHT22;2228;48.140;11.488;2023-03-23T09:42:57;18.30;99.90
4431;DHT22;2228;48.140;11.488;2023-03-23T15:54:34;17.50;99.90
4431;DHT22;2228;48.140;11.488;2023-03-23T15:57:01;17.50;99.90
4431;DHT22;2228;48.140;11.488;2023-03-23T15:59:31;17.50;99.90
4431;DHT22;2228;48.140;11.488;2023-03-23T16:01:59;17.60;99.90
4431;DHT22;2228;48.140;11.488;2023-03-23T16:04:27;17.50;99.90
4431;DHT22;2228;48.140;11.488;2023-03-23T16:06:55;17.40;99.90
4431;DHT22;2228;48.140;11.488;2023-03-23T16:09:23;17.30;99.90
4431;DHT22;2228;48.140;11.488;2023-03-23T16:11:52;17.30;99.90
4431;DHT22;2228;48.140;11.488;2023-03-23T16:14:19;17.20;99.90
4431;DHT22;2228;48.140;11.488;2023-03-23T16:16:47;17.10;99.90
4431;DHT22;2228;48.140;11.488;2023-03-23T16:19:17;17.00;99.90
4431;DHT22;2228;48.140;11.488;2023-03-23T16:21:46;17.10;99.90
4431;DHT22;2228;48.140;11.488;2023-03-23T16:24:12;17.00;99.90
4431;DHT22;2228;48.140;11.488;2023-03-23T16:26:39;17.00;99.90
4431;DHT22;2228;48.140;11.488;2023-03-23T16:29:14;16.80;99.90
4431;DHT22;2228;48.140;11.488;2023-03-23T16:31:45;16.50;99.90
4431;DHT22;2228;48.140;11.488;2023-03-23T16:34:16;16.50;99.90
4431;DHT22;2228;48.140;11.488;2023-03-23T16:36:42;16.30;99.90
4431;DHT22;2228;48.140;11.488;2023-03-23T16:39:10;15.90;99.90
4431;DHT22;2228;48.140;11.488;2023-03-23T16:41:37;15.70;99.90
4431;DHT22;2228;48.140;11.488;2023-03-23T16:44:05;15.40;99.90
4431;DHT22;2228;48.140;11.488;2023-03-23T16:46:34;15.20;99.90
4431;DHT22;2228;48.140;11.488;2023-03-23T16:49:02;15.10;99.90
4431;DHT22;2228;48.140;11.488;2023-03-23T16:51:29;14.90;1.00
4431;DHT22;2228;48.140;11.488;2023-03-23T16:54:20;14.90;1.00
4431;DHT22;2228;48.140;11.488;2023-03-23T16:56:50;14.80;1.00
4431;DHT22;2228;48.140;11.488;2023-03-23T16:59:17;14.80;1.00
4431;DHT22;2228;48.140;11.488;2023-03-23T17:01:45;14.90;1.00
4431;DHT22;2228;48.140;11.488;2023-03-23T17:04:13;15.00;1.00
4431;DHT22;2228;48.140;11.488;2023-03-23T17:06:41;14.90;1.00
4431;DHT22;2228;48.140;11.488;2023-03-23T17:09:09;14.90;1.00
4431;DHT22;2228;48.140;11.488;2023-03-23T17:11:36;14.80;1.00
4431;DHT22;2228;48.140;11.488;2023-03-23T17:14:03;14.80;1.00
4431;DHT22;2228;48.140;11.488;2023-03-23T17:16:31;14.90;1.00
4431;DHT22;2228;48.140;11.488;2023-03-23T17:19:00;14.90;1.00
4431;DHT22;2228;48.140;11.488;2023-03-23T17:21:27;14.90;1.00
4431;DHT22;2228;48.140;11.488;2023-03-23T17:23:54;14.90;1.00
4431;DHT22;2228;48.140;11.488;2023-03-23T17:26:22;14.90;1.00
4431;DHT22;2228;48.140;11.488;2023-03-23T17:28:50;14.90;1.00
4431;DHT22;2228;48.140;11.488;2023-03-23T17:31:17;14.80;1.00
4431;DHT22;2228;48.140;11.488;2023-03-23T17:33:46;14.80;1.00
4431;DHT22;2228;48.140;11.488;2023-03-23T17:36:15;14.80;1.00
4431;DHT22;2228;48.140;11.488;2023-03-23T17:38:43;14.90;1.00
4431;DHT22;2228;48.140;11.488;2023-03-23T17:46:47;15.30;1.00
4431;DHT22;2228;48.140;11.488;2023-03-23T17:49:51;15.30;1.00
4431;DHT22;2228;48.140;11.488;2023-03-23T17:52:21;15.20;1.00
4431;DHT22;2228;48.140;11.488;2023-03-23T17:54:49;15.20;1.00
4431;DHT22;2228;48.140;11.488;2023-03-23T17:57:16;15.20;1.00
4431;DHT22;2228;48.140;11.488;2023-03-23T17:59:43;15.20;1.00
4431;DHT22;2228;48.140;11.488;2023-03-23T18:02:11;15.20;1.00
4431;DHT22;2228;48.140;11.488;2023-03-23T18:04:38;15.10;1.00
4431;DHT22;2228;48.140;11.488;2023-03-23T18:07:07;15.00;1.00
4431;DHT22;2228;48.140;11.488;2023-03-23T18:09:35;15.00;1.00
4431;DHT22;2228;48.140;11.488;2023-03-23T18:12:03;14.90;1.00
4431;DHT22;2228;48.140;11.488;2023-03-23T18:14:30;14.90;1.00
4431;DHT22;2228;48.140;11.488;2023-03-23T18:16:57;14.90;1.00
4431;DHT22;2228;48.140;11.488;2023-03-23T18:19:24;14.80;1.00
4431;DHT22;2228;48.140;11.488;2023-03-23T18:21:53;14.90;1.00
4431;DHT22;2228;48.140;11.488;2023-03-23T18:24:20;14.80;1.00
4431;DHT22;2228;48.140;11.488;2023-03-23T18:26:50;14.70;1.00
4431;DHT22;2228;48.140;11.488;2023-03-23T18:29:17;14.60;1.00
4431;DHT22;2228;48.140;11.488;2023-03-23T18:31:44;14.70;1.00
4431;DHT22;2228;48.140;11.488;2023-03-23T18:34:12;14.70;1.00
4431;DHT22;2228;48.140;11.488;2023-03-23T18:36:39;14.80;1.00
4431;DHT22;2228;48.140;11.488;2023-03-23T18:39:06;14.80;1.00
4431;DHT22;2228;48.140;11.488;2023-03-23T18:41:36;14.80;1.00
4431;DHT22;2228;48.140;11.488;2023-03-23T18:44:04;14.80;1.00
4431;DHT22;2228;48.140;11.488;2023-03-23T18:46:32;14.70;1.00
4431;DHT22;2228;48.140;11.488;2023-03-23T18:48:59;14.70;1.00
4431;DHT22;2228;48.140;11.488;2023-03-23T18:51:27;14.80;1.00
4431;DHT22;2228;48.140;11.488;2023-03-23T18:53:55;14.80;1.00
4431;DHT22;2228;48.140;11.488;2023-03-23T18:56:25;14.80;1.00
4431;DHT22;2228;48.140;11.488;2023-03-23T18:58:52;14.90;1.00
4431;DHT22;2228;48.140;11.488;2023-03-23T19:01:21;14.90;1.00
4431;DHT22;2228;48.140;11.488;2023-03-23T19:03:48;14.90;1.00
4431;DHT22;2228;48.140;11.488;2023-03-23T19:06:18;14.80;1.00
4431;DHT22;2228;48.140;11.488;2023-03-23T19:08:46;14.70;1.00
4431;DHT22;2228;48.140;11.488;2023-03-23T19:11:14;14.60;1.00
4431;DHT22;2228;48.140;11.488;2023-03-23T19:13:44;14.70;1.00
4431;DHT22;2228;48.140;11.488;2023-03-23T19:16:11;14.80;1.00
4431;DHT22;2228;48.140;11.488;2023-03-23T19:18:40;14.70;1.00
4431;DHT22;2228;48.140;11.488;2023-03-23T19:21:07;14.60;1.00
4431;DHT22;2228;48.140;11.488;2023-03-23T19:23:34;14.50;1.00
4431;DHT22;2228;48.140;11.488;2023-03-23T19:26:03;14.60;1.00
4431;DHT22;2228;48.140;11.488;2023-03-23T19:28:33;14.50;1.00
4431;DHT22;2228;48.140;11.488;2023-03-23T19:31:01;14.60;1.00
4431;DHT22;2228;48.140;11.488;2023-03-23T19:33:28;14.70;1.00
4431;DHT22;2228;48.140;11.488;2023-03-23T19:35:57;14.70;1.00
4431;DHT22;2228;48.140;11.488;2023-03-23T19:38:24;14.70;1.00
4431;DHT22;2228;48.140;11.488;2023-03-23T19:40:53;14.70;1.00
4431;DHT22;2228;48.140;11.488;2023-03-23T19:43:22;14.70;1.00
4431;DHT22;2228;48.140;11.488;2023-03-23T19:45:49;14.70;1.00
4431;DHT22;2228;48.140;11.488;2023-03-23T19:48:16;14.60;1.00
4431;DHT22;2228;48.140;11.488;2023-03-23T19:50:44;14.70;1.00
4431;DHT22;2228;48.140;11.488;2023-03-23T19:53:15;14.70;1.00
4431;DHT22;2228;48.140;11.488;2023-03-23T19:55:42;14.60;1.00
4431;DHT22;2228;48.140;11.488;2023-03-23T19:58:09;14.60;1.00
4431;DHT22;2228;48.140;11.488;2023-03-23T20:00:37;14.60;1.00
4431;DHT22;2228;48.140;11.488;2023-03-23T20:03:04;14.60;1.00
4431;DHT22;2228;48.140;11.488;2023-03-23T20:05:32;14.60;1.00
4431;DHT22;2228;48.140;11.488;2023-03-23T20:08:00;14.60;1.00
4431;DHT22;2228;48.140;11.488;2023-03-23T20:10:29;14.70;1.00
4431;DHT22;2228;48.140;11.488;2023-03-23T20:12:59;14.60;1.00
4431;DHT22;2228;48.140;11.488;2023-03-23T20:15:28;14.70;1.00
4431;DHT22;2228;48.140;11.488;2023-03-23T20:17:56;14.70;1.00
4431;DHT22;2228;48.140;11.488;2023-03-23T20:20:24;14.70;1.00
4431;DHT22;2228;48.140;11.488;2023-03-23T20:22:51;14.70;1.00
4431;DHT22;2228;48.140;11.488;2023-03-23T20:25:18;14.70;1.00
4431;DHT22;2228;48.140;11.488;2023-03-23T20:27:47;14.70;1.00
4431;DHT22;2228;48.140;11.488;2023-03-23T20:30:15;14.70;1.00
4431;DHT22;2228;48.140;11.488;2023-03-23T20:32:45;14.70;1.00
4431;DHT22;2228;48.140;11.488;2023-03-23T20:35:12;14.60;1.00
4431;DHT22;2228;48.140;11.488;2023-03-23T20:37:41;14.60;1.00
4431;DHT22;2228;48.140;11.488;2023-03-23T20:40:11;14.50;1.00
4431;DHT22;2228;48.140;11.488;2023-03-23T20:42:39;14.40;1.00
4431;DHT22;2228;48.140;11.488;2023-03-23T21:57:13;13.50;1.00
4431;DHT22;2228;48.140;11.488;2023-03-23T21:59:40;13.40;1.00
4431;DHT22;2228;48.140;11.488;2023-03-23T22:02:10;13.40;1.00
4431;DHT22;2228;48.140;11.488;2023-03-23T22:04:37;13.40;1.00
4431;DHT22;2228;48.140;11.488;2023-03-23T22:07:05;13.40;1.00
4431;DHT22;2228;48.140;11.488;2023-03-23T22:09:32;13.50;1.00
4431;DHT22;2228;48.140;11.488;2023-03-23T22:12:00;13.40;1.00
4431;DHT22;2228;48.140;11.488;2023-03-23T22:14:28;13.40;1.00
4431;DHT22;2228;48.140;11.488;2023-03-23T22:16:55;13.30;1.00
4431;DHT22;2228;48.140;11.488;2023-03-23T22:19:22;13.30;1.00
4431;DHT22;2228;48.140;11.488;2023-03-23T22:21:50;13.30;1.00
4431;DHT22;2228;48.140;11.488;2023-03-23T22:24:17;13.30;1.00
4431;DHT22;2228;48.140;11.488;2023-03-23T22:26:44;13.30;1.00
4431;DHT22;2228;48.140;11.488;2023-03-23T22:29:11;13.30;1.00
4431;DHT22;2228;48.140;11.488;2023-03-23T22:31:43;13.30;1.00
4431;DHT22;2228;48.140;11.488;2023-03-23T22:34:11;13.30;1.00
4431;DHT22;2228;48.140;11.488;2023-03-23T22:36:39;13.30;1.00
4431;DHT22;2228;48.140;11.488;2023-03-23T22:39:07;13.30;1.00
4431;DHT22;2228;48.140;11.488;2023-03-23T22:41:36;13.30;1.00
4431;DHT22;2228;48.140;11.488;2023-03-23T22:44:05;13.30;1.00
4431;DHT22;2228;48.140;11.488;2023-03-23T22:46:33;13.40;1.00
4431;DHT22;2228;48.140;11.488;2023-03-23T22:49:01;13.40;1.00
4431;DHT22;2228;48.140;11.488;2023-03-23T22:51:29;13.40;1.00
4431;DHT22;2228;48.140;11.488;2023-03-23T22:53:56;13.30;1.00
4431;DHT22;2228;48.140;11.488;2023-03-23T22:56:23;13.30;1.00
4431;DHT22;2228;48.140;11.488;2023-03-23T22:58:50;13.40;1.00
4431;DHT22;2228;48.140;11.488;2023-03-23T23:01:19;13.30;1.00
4431;DHT22;2228;48.140;11.488;2023-03-23T23:03:46;13.30;1.00
4431;DHT22;2228;48.140;11.488;2023-03-23T23:06:16;13.30;1.00
4431;DHT22;2228;48.140;11.488;2023-03-23T23:08:45;13.30;1.00
4431;DHT22;2228;48.140;11.488;2023-03-23T23:11:14;13.20;1.00
4431;DHT22;2228;48.140;11.488;2023-03-23T23:13:42;13.20;1.00
4431;DHT22;2228;48.140;11.488;2023-03-23T23:16:10;13.20;1.00
4431;DHT22;2228;48.140;11.488;2023-03-23T23:18:37;13.20;1.00
4431;DHT22;2228;48.140;11.488;2023-03-23T23:21:06;13.20;1.00
4431;DHT22;2228;48.140;11.488;2023-03-23T23:23:35;13.30;1.00
4431;DHT22;2228;48.140;11.488;2023-03-23T23:26:02;13.20;1.00
4431;DHT22;2228;48.140;11.488;2023-03-23T23:28:29;13.30;1.00
4431;DHT22;2228;48.140;11.488;2023-03-23T23:30:56;13.30;1.00
4431;DHT22;2228;48.140;11.488;2023-03-23T23:33:24;13.20;1.00
4431;DHT22;2228;48.140;11.488;2023-03-23T23:35:51;13.10;1.00
4431;DHT22;2228;48.140;11.488;2023-03-23T23:38:19;13.00;1.00
4431;DHT22;2228;48.140;11.488;2023-03-23T23:40:47;12.90;1.00
4431;DHT22;2228;48.140;11.488;2023-03-23T23:43:15;12.90;1.00
4431;DHT22;2228;48.140;11.488;2023-03-23T23:45:44;12.80;1.00
4431;DHT22;2228;48.140;11.488;2023-03-23T23:48:11;12.80;1.00
4431;DHT22;2228;48.140;11.488;2023-03-23T23:50:38;12.70;1.00
4431;DHT22;2228;48.140;11.488;2023-03-23T23:53:05;12.80;1.00
4431;DHT22;2228;48.140;11.488;2023-03-23T23:55:34;12.70;1.00
4431;DHT22;2228;48.140;11.488;2023-03-23T23:58:03;12.80;1.00
